sensor_id;sensor_type;location;lat;lon;timestamp;pressure;altitude;pressure_sealevel;temperature;humidity
42177;BME280;28126;51.060;19.460;2022-08-03T00:00:54;100412.20;;;26.39;53.54
42177;BME280;28126;51.060;19.460;2022-08-03T00:03:56;100414.13;;;26.39;53.57
42177;BME280;28126;51.060;19.460;2022-08-03T00:06:57;100416.05;;;26.38;53.62
42177;BME280;28126;51.060;19.460;2022-08-03T00:09:59;100416.05;;;26.38;53.56
42177;BME280;28126;51.060;19.460;2022-08-03T00:13:01;100416.63;;;26.38;53.55
42177;BME280;28126;51.060;19.460;2022-08-03T00:16:04;100414.95;;;26.37;53.59
42177;BME280;28126;51.060;19.460;2022-08-03T00:19:06;100421.31;;;26.37;53.57
42177;BME280;28126;51.060;19.460;2022-08-03T00:22:07;100424.34;;;26.38;53.59
42177;BME280;28126;51.060;19.460;2022-08-03T00:25:08;100421.02;;;26.36;53.59
42177;BME280;28126;51.060;19.460;2022-08-03T00:28:10;100416.62;;;26.35;53.66
42177;BME280;28126;51.060;19.460;2022-08-03T00:31:11;100423.78;;;26.36;53.62
42177;BME280;28126;51.060;19.460;2022-08-03T00:34:12;100427.92;;;26.36;53.65
42177;BME280;28126;51.060;19.460;2022-08-03T00:37:14;100422.14;;;26.35;53.66
42177;BME280;28126;51.060;19.460;2022-08-03T00:40:17;100415.78;;;26.35;53.65
42177;BME280;28126;51.060;19.460;2022-08-03T00:43:25;100420.76;;;26.35;53.64
42177;BME280;28126;51.060;19.460;2022-08-03T00:46:27;100425.18;;;26.34;53.65
42177;BME280;28126;51.060;19.460;2022-08-03T00:49:29;100420.20;;;26.33;53.66
42177;BME280;28126;51.060;19.460;2022-08-03T00:52:30;100420.75;;;26.33;53.65
42177;BME280;28126;51.060;19.460;2022-08-03T00:55:34;100429.86;;;26.33;53.64
42177;BME280;28126;51.060;19.460;2022-08-03T00:58:36;100422.70;;;26.32;53.66
42177;BME280;28126;51.060;19.460;2022-08-03T01:01:37;100427.92;;;26.31;53.63
42177;BME280;28126;51.060;19.460;2022-08-03T01:04:39;100420.77;;;26.30;53.67
42177;BME280;28126;51.060;19.460;2022-08-03T01:14:26;100427.11;;;26.28;53.71
42177;BME280;28126;51.060;19.460;2022-08-03T01:17:45;100430.95;;;26.27;53.68
42177;BME280;28126;51.060;19.460;2022-08-03T01:33:03;100429.56;;;26.25;53.10
42177;BME280;28126;51.060;19.460;2022-08-03T01:36:17;100430.69;;;26.26;53.24
42177;BME280;28126;51.060;19.460;2022-08-03T01:39:20;100432.88;;;26.22;53.41
42177;BME280;28126;51.060;19.460;2022-08-03T01:42:24;100428.73;;;26.19;53.56
42177;BME280;28126;51.060;19.460;2022-08-03T01:45:26;100432.61;;;26.18;53.64
42177;BME280;28126;51.060;19.460;2022-08-03T01:48:29;100434.81;;;26.16;53.69
42177;BME280;28126;51.060;19.460;2022-08-03T01:51:32;100432.05;;;26.16;53.67
42177;BME280;28126;51.060;19.460;2022-08-03T01:54:43;100430.67;;;26.16;53.70
42177;BME280;28126;51.060;19.460;2022-08-03T01:57:47;100425.41;;;26.17;53.67
42177;BME280;28126;51.060;19.460;2022-08-03T02:00:51;100424.33;;;26.18;53.67
42177;BME280;28126;51.060;19.460;2022-08-03T02:03:54;100415.51;;;26.19;53.66
42177;BME280;28126;51.060;19.460;2022-08-03T02:06:57;100410.53;;;26.18;53.66
42177;BME280;28126;51.060;19.460;2022-08-03T02:10:00;100409.98;;;26.19;53.68
42177;BME280;28126;51.060;19.460;2022-08-03T02:13:06;100407.21;;;26.21;53.62
42177;BME280;28126;51.060;19.460;2022-08-03T02:16:09;100403.91;;;26.22;53.62
42177;BME280;28126;51.060;19.460;2022-08-03T02:19:11;100398.93;;;26.21;53.56
42177;BME280;28126;51.060;19.460;2022-08-03T02:22:15;100405.28;;;26.22;53.58
42177;BME280;28126;51.060;19.460;2022-08-03T02:25:17;100401.41;;;26.23;53.48
42177;BME280;28126;51.060;19.460;2022-08-03T02:28:20;100406.92;;;26.23;53.49
42177;BME280;28126;51.060;19.460;2022-08-03T02:31:27;100396.19;;;26.24;53.51
42177;BME280;28126;51.060;19.460;2022-08-03T02:34:30;100401.98;;;26.22;53.48
42177;BME280;28126;51.060;19.460;2022-08-03T02:37:43;100400.60;;;26.22;53.48
42177;BME280;28126;51.060;19.460;2022-08-03T02:40:43;100392.87;;;26.22;53.50
42177;BME280;28126;51.060;19.460;2022-08-03T02:43:48;100400.05;;;26.20;53.54
42177;BME280;28126;51.060;19.460;2022-08-03T02:46:57;100397.55;;;26.21;53.52
42177;BME280;28126;51.060;19.460;2022-08-03T02:49:59;100397.55;;;26.21;53.55
42177;BME280;28126;51.060;19.460;2022-08-03T02:53:03;100395.36;;;26.21;53.54
42177;BME280;28126;51.060;19.460;2022-08-03T02:56:06;100389.84;;;26.21;53.54
42177;BME280;28126;51.060;19.460;2022-08-03T02:59:10;100396.74;;;26.21;53.55
42177;BME280;28126;51.060;19.460;2022-08-03T03:02:14;100396.45;;;26.20;53.53
42177;BME280;28126;51.060;19.460;2022-08-03T03:05:17;100399.21;;;26.20;53.57
42177;BME280;28126;51.060;19.460;2022-08-03T03:08:20;100408.03;;;26.19;53.56
42177;BME280;28126;51.060;19.460;2022-08-03T03:11:23;100409.41;;;26.19;53.51
42177;BME280;28126;51.060;19.460;2022-08-03T03:14:25;100404.73;;;26.20;53.54
42177;BME280;28126;51.060;19.460;2022-08-03T03:17:29;100412.17;;;26.19;53.57
42177;BME280;28126;51.060;19.460;2022-08-03T03:20:32;100410.25;;;26.20;53.51
42177;BME280;28126;51.060;19.460;2022-08-03T03:23:39;100415.51;;;26.19;53.51
42177;BME280;28126;51.060;19.460;2022-08-03T03:26:42;100410.53;;;26.18;53.56
42177;BME280;28126;51.060;19.460;2022-08-03T03:29:45;100414.38;;;26.17;53.47
42177;BME280;28126;51.060;19.460;2022-08-03T03:32:48;100416.31;;;26.19;53.46
42177;BME280;28126;51.060;19.460;2022-08-03T03:35:50;100419.65;;;26.19;53.44
42177;BME280;28126;51.060;19.460;2022-08-03T03:38:53;100418.81;;;26.18;53.42
42177;BME280;28126;51.060;19.460;2022-08-03T03:41:54;100419.36;;;26.20;53.45
42177;BME280;28126;51.060;19.460;2022-08-03T03:44:57;100422.12;;;26.20;53.33
42177;BME280;28126;51.060;19.460;2022-08-03T03:48:03;100427.64;;;26.20;53.33
42177;BME280;28126;51.060;19.460;2022-08-03T03:51:06;100427.92;;;26.19;53.35
42177;BME280;28126;51.060;19.460;2022-08-03T03:54:07;100429.02;;;26.20;53.40
42177;BME280;28126;51.060;19.460;2022-08-03T03:57:10;100440.06;;;26.20;53.40
42177;BME280;28126;51.060;19.460;2022-08-03T04:00:15;100439.77;;;26.19;53.43
42177;BME280;28126;51.060;19.460;2022-08-03T04:03:16;100441.44;;;26.20;53.36
42177;BME280;28126;51.060;19.460;2022-08-03T04:06:18;100445.58;;;26.20;53.39
42177;BME280;28126;51.060;19.460;2022-08-03T04:09:40;100449.42;;;26.19;53.37
42177;BME280;28126;51.060;19.460;2022-08-03T04:13:04;100448.34;;;26.20;53.32
42177;BME280;28126;51.060;19.460;2022-08-03T04:16:11;100452.19;;;26.19;53.33
42177;BME280;28126;51.060;19.460;2022-08-03T04:19:36;100453.30;;;26.18;53.24
42177;BME280;28126;51.060;19.460;2022-08-03T04:22:38;100447.80;;;26.21;53.18
42177;BME280;28126;51.060;19.460;2022-08-03T04:25:41;100454.14;;;26.19;53.22
42177;BME280;28126;51.060;19.460;2022-08-03T04:28:46;100459.38;;;26.20;53.30
42177;BME280;28126;51.060;19.460;2022-08-03T04:31:52;100459.10;;;26.22;53.19
42177;BME280;28126;51.060;19.460;2022-08-03T04:34:55;100455.80;;;26.22;53.12
42177;BME280;28126;51.060;19.460;2022-08-03T04:38:01;100459.36;;;26.23;53.13
42177;BME280;28126;51.060;19.460;2022-08-03T04:41:04;100469.31;;;26.24;53.32
42177;BME280;28126;51.060;19.460;2022-08-03T04:44:07;100465.44;;;26.25;53.37
42177;BME280;28126;51.060;19.460;2022-08-03T04:47:09;100466.84;;;26.27;53.31
42177;BME280;28126;51.060;19.460;2022-08-03T04:50:10;100467.67;;;26.28;53.28
42177;BME280;28126;51.060;19.460;2022-08-03T04:53:13;100467.39;;;26.29;53.32
42177;BME280;28126;51.060;19.460;2022-08-03T04:56:14;100469.06;;;26.30;53.32
42177;BME280;28126;51.060;19.460;2022-08-03T04:59:15;100467.41;;;26.32;53.27
42177;BME280;28126;51.060;19.460;2022-08-03T05:02:18;100465.75;;;26.33;53.30
42177;BME280;28126;51.060;19.460;2022-08-03T05:05:20;100460.23;;;26.33;53.42
42177;BME280;28126;51.060;19.460;2022-08-03T05:08:22;100461.06;;;26.34;53.43
42177;BME280;28126;51.060;19.460;2022-08-03T05:11:24;100462.42;;;26.36;53.46
42177;BME280;28126;51.060;19.460;2022-08-03T05:14:25;100462.72;;;26.37;53.43
42177;BME280;28126;51.060;19.460;2022-08-03T05:17:27;100460.77;;;26.40;53.46
42177;BME280;28126;51.060;19.460;2022-08-03T05:20:29;100463.55;;;26.43;53.82
42177;BME280;28126;51.060;19.460;2022-08-03T05:23:31;100467.15;;;26.43;53.74
42177;BME280;28126;51.060;19.460;2022-08-03T05:26:32;100467.15;;;26.43;53.64
42177;BME280;28126;51.060;19.460;2022-08-03T05:29:34;100467.15;;;26.43;53.46
42177;BME280;28126;51.060;19.460;2022-08-03T05:32:35;100459.95;;;26.42;53.59
42177;BME280;28126;51.060;19.460;2022-08-03T05:35:37;100458.31;;;26.41;53.25
42177;BME280;28126;51.060;19.460;2022-08-03T05:38:39;100463.83;;;26.41;52.97
42177;BME280;28126;51.060;19.460;2022-08-03T05:41:40;100460.77;;;26.40;53.05
42177;BME280;28126;51.060;19.460;2022-08-03T05:44:42;100471.57;;;26.42;53.12
42177;BME280;28126;51.060;19.460;2022-08-03T05:47:44;100472.38;;;26.42;53.20
42177;BME280;28126;51.060;19.460;2022-08-03T05:50:45;100469.61;;;26.42;53.22
42177;BME280;28126;51.060;19.460;2022-08-03T05:53:47;100471.00;;;26.42;53.21
42177;BME280;28126;51.060;19.460;2022-08-03T05:56:48;100473.76;;;26.42;53.21
42177;BME280;28126;51.060;19.460;2022-08-03T05:59:50;100474.05;;;26.43;53.09
42177;BME280;28126;51.060;19.460;2022-08-03T06:02:51;100469.07;;;26.43;53.06
42177;BME280;28126;51.060;19.460;2022-08-03T06:05:53;100469.61;;;26.42;53.04
42177;BME280;28126;51.060;19.460;2022-08-03T06:08:58;100470.44;;;26.40;53.00
42177;BME280;28126;51.060;19.460;2022-08-03T06:11:59;100472.11;;;26.41;53.03
42177;BME280;28126;51.060;19.460;2022-08-03T06:15:03;100470.19;;;26.42;52.92
42177;BME280;28126;51.060;19.460;2022-08-03T06:18:04;100470.44;;;26.40;52.92
42177;BME280;28126;51.060;19.460;2022-08-03T06:21:08;100475.71;;;26.42;52.88
42177;BME280;28126;51.060;19.460;2022-08-03T06:24:10;100476.25;;;26.41;52.92
42177;BME280;28126;51.060;19.460;2022-08-03T06:27:11;100482.03;;;26.42;53.16
42177;BME280;28126;51.060;19.460;2022-08-03T06:30:14;100483.70;;;26.41;52.83
42177;BME280;28126;51.060;19.460;2022-08-03T06:33:18;100478.72;;;26.40;52.92
42177;BME280;28126;51.060;19.460;2022-08-03T06:36:20;100488.13;;;26.42;52.97
42177;BME280;28126;51.060;19.460;2022-08-03T06:39:22;100482.03;;;26.42;53.06
42177;BME280;28126;51.060;19.460;2022-08-03T06:42:25;100482.32;;;26.41;53.14
42177;BME280;28126;51.060;19.460;2022-08-03T06:45:27;100491.14;;;26.40;53.20
42177;BME280;28126;51.060;19.460;2022-08-03T06:48:30;100498.05;;;26.40;53.58
42177;BME280;28126;51.060;19.460;2022-08-03T06:51:32;100496.66;;;26.40;53.34
42177;BME280;28126;51.060;19.460;2022-08-03T06:54:34;100499.17;;;26.42;53.57
42177;BME280;28126;51.060;19.460;2022-08-03T06:57:36;100488.67;;;26.41;53.34
42177;BME280;28126;51.060;19.460;2022-08-03T07:00:38;100496.95;;;26.41;53.43
42177;BME280;28126;51.060;19.460;2022-08-03T07:03:40;100496.12;;;26.41;53.24
42177;BME280;28126;51.060;19.460;2022-08-03T07:06:41;100494.19;;;26.39;52.95
42177;BME280;28126;51.060;19.460;2022-08-03T07:09:43;100491.41;;;26.36;52.80
42177;BME280;28126;51.060;19.460;2022-08-03T07:12:44;100501.64;;;26.36;53.26
42177;BME280;28126;51.060;19.460;2022-08-03T07:15:49;100495.55;;;26.36;53.27
42177;BME280;28126;51.060;19.460;2022-08-03T07:18:51;100504.95;;;26.35;53.37
42177;BME280;28126;51.060;19.460;2022-08-03T07:21:54;100496.39;;;26.37;53.23
42177;BME280;28126;51.060;19.460;2022-08-03T07:24:56;100499.69;;;26.36;53.53
42177;BME280;28126;51.060;19.460;2022-08-03T07:27:59;100501.91;;;26.37;53.57
42177;BME280;28126;51.060;19.460;2022-08-03T07:31:02;100499.98;;;26.37;53.50
42177;BME280;28126;51.060;19.460;2022-08-03T07:34:04;100507.42;;;26.37;53.29
42177;BME280;28126;51.060;19.460;2022-08-03T07:37:08;100507.70;;;26.35;52.99
42177;BME280;28126;51.060;19.460;2022-08-03T07:40:10;100503.27;;;26.34;52.82
42177;BME280;28126;51.060;19.460;2022-08-03T07:43:12;100502.19;;;26.35;53.09
42177;BME280;28126;51.060;19.460;2022-08-03T07:46:13;100508.55;;;26.36;53.28
42177;BME280;28126;51.060;19.460;2022-08-03T07:49:16;100508.27;;;26.37;53.83
42177;BME280;28126;51.060;19.460;2022-08-03T07:52:18;100506.06;;;26.39;53.96
42177;BME280;28126;51.060;19.460;2022-08-03T07:55:38;100508.84;;;26.42;53.83
42177;BME280;28126;51.060;19.460;2022-08-03T07:58:40;100513.24;;;26.43;53.88
42177;BME280;28126;51.060;19.460;2022-08-03T08:01:41;100515.73;;;26.47;53.86
42177;BME280;28126;51.060;19.460;2022-08-03T08:04:43;100504.70;;;26.49;53.83
42177;BME280;28126;51.060;19.460;2022-08-03T08:07:45;100508.02;;;26.51;53.84
42177;BME280;28126;51.060;19.460;2022-08-03T08:10:47;100508.84;;;26.54;53.99
42177;BME280;28126;51.060;19.460;2022-08-03T08:13:49;100510.52;;;26.55;54.09
42177;BME280;28126;51.060;19.460;2022-08-03T08:16:51;100512.16;;;26.56;54.46
42177;BME280;28126;51.060;19.460;2022-08-03T08:19:53;100511.05;;;26.57;54.62
42177;BME280;28126;51.060;19.460;2022-08-03T08:22:56;100511.59;;;26.59;54.75
42177;BME280;28126;51.060;19.460;2022-08-03T08:25:59;100519.06;;;26.61;54.61
42177;BME280;28126;51.060;19.460;2022-08-03T08:29:01;100515.76;;;26.62;54.49
42177;BME280;28126;51.060;19.460;2022-08-03T08:32:04;100516.85;;;26.63;54.39
42177;BME280;28126;51.060;19.460;2022-08-03T08:35:08;100521.55;;;26.65;54.33
42177;BME280;28126;51.060;19.460;2022-08-03T08:38:10;100516.03;;;26.65;54.24
42177;BME280;28126;51.060;19.460;2022-08-03T08:41:13;100513.27;;;26.65;54.21
42177;BME280;28126;51.060;19.460;2022-08-03T08:44:15;100511.63;;;26.64;54.12
42177;BME280;28126;51.060;19.460;2022-08-03T08:47:23;100509.13;;;26.65;54.01
42177;BME280;28126;51.060;19.460;2022-08-03T08:50:25;100504.98;;;26.65;53.84
42177;BME280;28126;51.060;19.460;2022-08-03T08:53:31;100509.42;;;26.66;53.70
42177;BME280;28126;51.060;19.460;2022-08-03T08:56:36;100513.01;;;26.64;53.58
42177;BME280;28126;51.060;19.460;2022-08-03T08:59:39;100504.16;;;26.67;53.48
42177;BME280;28126;51.060;19.460;2022-08-03T09:02:42;100501.39;;;26.67;53.42
42177;BME280;28126;51.060;19.460;2022-08-03T09:05:44;100504.45;;;26.68;53.36
42177;BME280;28126;51.060;19.460;2022-08-03T09:08:46;100497.55;;;26.68;53.34
42177;BME280;28126;51.060;19.460;2022-08-03T09:11:48;100496.97;;;26.69;53.28
42177;BME280;28126;51.060;19.460;2022-08-03T09:14:50;100495.05;;;26.69;53.16
42177;BME280;28126;51.060;19.460;2022-08-03T09:17:55;100490.91;;;26.69;53.02
42177;BME280;28126;51.060;19.460;2022-08-03T09:21:19;100494.80;;;26.71;53.37
42177;BME280;28126;51.060;19.460;2022-08-03T09:24:21;100491.49;;;26.71;53.35
42177;BME280;28126;51.060;19.460;2022-08-03T09:27:23;100487.34;;;26.71;54.01
42177;BME280;28126;51.060;19.460;2022-08-03T09:30:25;100489.28;;;26.73;53.88
42177;BME280;28126;51.060;19.460;2022-08-03T09:33:27;100488.20;;;26.74;53.86
42177;BME280;28126;51.060;19.460;2022-08-03T09:36:43;100489.84;;;26.75;54.03
42177;BME280;28126;51.060;19.460;2022-08-03T09:39:37;100487.91;;;26.76;53.95
42177;BME280;28126;51.060;19.460;2022-08-03T09:42:55;100479.62;;;26.76;53.81
42177;BME280;28126;51.060;19.460;2022-08-03T09:46:04;100491.77;;;26.77;53.83
42177;BME280;28126;51.060;19.460;2022-08-03T09:49:10;100484.33;;;26.78;53.85
42177;BME280;28126;51.060;19.460;2022-08-03T09:52:17;100478.80;;;26.78;53.73
42177;BME280;28126;51.060;19.460;2022-08-03T09:55:19;100477.14;;;26.79;53.51
42177;BME280;28126;51.060;19.460;2022-08-03T09:58:26;100477.68;;;26.79;53.34
42177;BME280;28126;51.060;19.460;2022-08-03T10:01:33;100474.37;;;26.79;53.43
42177;BME280;28126;51.060;19.460;2022-08-03T10:04:45;100474.09;;;26.81;53.42
42177;BME280;28126;51.060;19.460;2022-08-03T10:07:46;100476.31;;;26.81;53.82
42177;BME280;28126;51.060;19.460;2022-08-03T10:10:49;100478.79;;;26.83;53.97
42177;BME280;28126;51.060;19.460;2022-08-03T10:13:53;100469.41;;;26.84;53.88
42177;BME280;28126;51.060;19.460;2022-08-03T10:16:55;100471.89;;;26.85;53.76
42177;BME280;28126;51.060;19.460;2022-08-03T10:19:56;100471.05;;;26.85;53.80
42177;BME280;28126;51.060;19.460;2022-08-03T10:23:00;100477.97;;;26.87;53.66
42177;BME280;28126;51.060;19.460;2022-08-03T10:26:06;100469.39;;;26.86;53.52
42177;BME280;28126;51.060;19.460;2022-08-03T10:29:13;100471.06;;;26.87;53.40
42177;BME280;28126;51.060;19.460;2022-08-03T10:32:26;100469.94;;;26.88;53.31
42177;BME280;28126;51.060;19.460;2022-08-03T10:35:28;100469.68;;;26.87;53.22
42177;BME280;28126;51.060;19.460;2022-08-03T10:38:48;100463.87;;;26.89;53.15
42177;BME280;28126;51.060;19.460;2022-08-03T10:41:52;100455.58;;;26.89;53.07
42177;BME280;28126;51.060;19.460;2022-08-03T10:45:04;100454.75;;;26.88;53.04
42177;BME280;28126;51.060;19.460;2022-08-03T10:48:07;100456.12;;;26.88;53.00
42177;BME280;28126;51.060;19.460;2022-08-03T10:51:09;100456.68;;;26.90;52.95
42177;BME280;28126;51.060;19.460;2022-08-03T10:57:57;100453.92;;;26.90;52.83
42177;BME280;28126;51.060;19.460;2022-08-03T11:01:00;100455.04;;;26.89;52.85
42177;BME280;28126;51.060;19.460;2022-08-03T11:07:23;100446.18;;;26.92;52.71
42177;BME280;28126;51.060;19.460;2022-08-03T11:10:30;100444.54;;;26.91;52.69
42177;BME280;28126;51.060;19.460;2022-08-03T11:13:32;100448.11;;;26.92;52.70
42177;BME280;28126;51.060;19.460;2022-08-03T11:16:41;100436.25;;;26.91;53.35
42177;BME280;28126;51.060;19.460;2022-08-03T11:19:46;100437.34;;;26.93;53.89
42177;BME280;28126;51.060;19.460;2022-08-03T11:22:49;100438.19;;;26.93;54.81
42177;BME280;28126;51.060;19.460;2022-08-03T11:26:15;100431.28;;;26.93;55.46
42177;BME280;28126;51.060;19.460;2022-08-03T11:29:28;100429.33;;;26.96;56.02
42177;BME280;28126;51.060;19.460;2022-08-03T11:36:00;100428.23;;;26.98;55.16
42177;BME280;28126;51.060;19.460;2022-08-03T11:39:14;100418.83;;;26.98;54.79
42177;BME280;28126;51.060;19.460;2022-08-03T11:45:30;100424.64;;;27.00;53.88
42177;BME280;28126;51.060;19.460;2022-08-03T11:48:41;100414.14;;;26.99;53.62
42177;BME280;28126;51.060;19.460;2022-08-03T11:51:43;100416.61;;;27.01;53.25
42177;BME280;28126;51.060;19.460;2022-08-03T11:54:45;100417.73;;;27.00;52.72
42177;BME280;28126;51.060;19.460;2022-08-03T11:57:49;100410.00;;;27.02;52.60
42177;BME280;28126;51.060;19.460;2022-08-03T12:00:51;100405.02;;;27.01;52.47
42177;BME280;28126;51.060;19.460;2022-08-03T12:03:52;100401.97;;;27.03;52.24
42177;BME280;28126;51.060;19.460;2022-08-03T12:07:02;100400.58;;;27.03;52.11
42177;BME280;28126;51.060;19.460;2022-08-03T12:10:13;100402.80;;;27.03;52.01
42177;BME280;28126;51.060;19.460;2022-08-03T12:13:16;100402.22;;;27.04;51.74
42177;BME280;28126;51.060;19.460;2022-08-03T12:16:23;100391.17;;;27.04;51.21
42177;BME280;28126;51.060;19.460;2022-08-03T12:19:25;100391.45;;;27.05;51.32
42177;BME280;28126;51.060;19.460;2022-08-03T12:22:36;100388.41;;;27.04;51.19
42177;BME280;28126;51.060;19.460;2022-08-03T12:25:40;100385.10;;;27.07;51.37
42177;BME280;28126;51.060;19.460;2022-08-03T12:28:49;100385.64;;;27.06;51.63
42177;BME280;28126;51.060;19.460;2022-08-03T12:31:51;100387.03;;;27.06;51.77
42177;BME280;28126;51.060;19.460;2022-08-03T12:34:54;100381.22;;;27.08;51.88
42177;BME280;28126;51.060;19.460;2022-08-03T12:37:57;100382.34;;;27.09;51.86
42177;BME280;28126;51.060;19.460;2022-08-03T12:41:05;100380.95;;;27.09;51.95
42177;BME280;28126;51.060;19.460;2022-08-03T12:44:07;100377.07;;;27.10;52.00
42177;BME280;28126;51.060;19.460;2022-08-03T12:47:08;100369.33;;;27.10;52.09
42177;BME280;28126;51.060;19.460;2022-08-03T12:53:28;100372.09;;;27.12;52.57
42177;BME280;28126;51.060;19.460;2022-08-03T12:56:30;100368.49;;;27.12;52.74
42177;BME280;28126;51.060;19.460;2022-08-03T12:59:44;100352.75;;;27.12;52.80
42177;BME280;28126;51.060;19.460;2022-08-03T13:02:59;100358.82;;;27.14;52.88
42177;BME280;28126;51.060;19.460;2022-08-03T13:06:01;100356.34;;;27.13;52.99
42177;BME280;28126;51.060;19.460;2022-08-03T13:09:07;100355.22;;;27.14;52.97
42177;BME280;28126;51.060;19.460;2022-08-03T13:12:19;100351.08;;;27.14;52.79
42177;BME280;28126;51.060;19.460;2022-08-03T13:15:16;100351.37;;;27.15;52.75
42177;BME280;28126;51.060;19.460;2022-08-03T13:18:18;100347.22;;;27.15;52.72
42177;BME280;28126;51.060;19.460;2022-08-03T13:21:20;100349.41;;;27.15;52.71
42177;BME280;28126;51.060;19.460;2022-08-03T13:24:21;100346.93;;;27.16;52.71
42177;BME280;28126;51.060;19.460;2022-08-03T13:27:24;100348.31;;;27.16;52.71
42177;BME280;28126;51.060;19.460;2022-08-03T13:30:26;100349.15;;;27.17;52.71
42177;BME280;28126;51.060;19.460;2022-08-03T13:33:27;100346.39;;;27.17;52.71
42177;BME280;28126;51.060;19.460;2022-08-03T13:36:28;100339.48;;;27.17;52.69
42177;BME280;28126;51.060;19.460;2022-08-03T13:39:31;100340.28;;;27.17;52.69
42177;BME280;28126;51.060;19.460;2022-08-03T13:42:34;100336.14;;;27.17;52.69
42177;BME280;28126;51.060;19.460;2022-08-03T13:45:36;100339.19;;;27.18;52.68
42177;BME280;28126;51.060;19.460;2022-08-03T13:48:37;100341.41;;;27.19;52.70
42177;BME280;28126;51.060;19.460;2022-08-03T13:51:39;100341.41;;;27.19;52.68
42177;BME280;28126;51.060;19.460;2022-08-03T13:54:40;100337.27;;;27.19;52.69
42177;BME280;28126;51.060;19.460;2022-08-03T13:57:43;100333.11;;;27.19;52.67
42177;BME280;28126;51.060;19.460;2022-08-03T14:00:45;100324.83;;;27.19;52.66
42177;BME280;28126;51.060;19.460;2022-08-03T14:03:46;100330.06;;;27.18;52.65
42177;BME280;28126;51.060;19.460;2022-08-03T14:06:52;100331.98;;;27.20;52.64
42177;BME280;28126;51.060;19.460;2022-08-03T14:09:54;100328.67;;;27.20;52.61
42177;BME280;28126;51.060;19.460;2022-08-03T14:12:55;100337.52;;;27.20;52.62
42177;BME280;28126;51.060;19.460;2022-08-03T14:15:58;100329.52;;;27.21;52.65
42177;BME280;28126;51.060;19.460;2022-08-03T14:19:00;100330.31;;;27.21;52.74
42177;BME280;28126;51.060;19.460;2022-08-03T14:22:02;100321.48;;;27.22;52.82
42177;BME280;28126;51.060;19.460;2022-08-03T14:25:04;100325.91;;;27.23;52.97
42177;BME280;28126;51.060;19.460;2022-08-03T14:28:07;100324.24;;;27.22;53.04
42177;BME280;28126;51.060;19.460;2022-08-03T14:31:09;100319.00;;;27.23;53.14
42177;BME280;28126;51.060;19.460;2022-08-03T14:34:10;100319.26;;;27.24;53.23
42177;BME280;28126;51.060;19.460;2022-08-03T14:37:12;100322.02;;;27.24;53.03
42177;BME280;28126;51.060;19.460;2022-08-03T14:40:13;100318.17;;;27.25;52.93
42177;BME280;28126;51.060;19.460;2022-08-03T14:43:15;100309.88;;;27.25;52.93
42177;BME280;28126;51.060;19.460;2022-08-03T14:46:23;100314.83;;;27.25;52.99
42177;BME280;28126;51.060;19.460;2022-08-03T14:49:24;100317.05;;;27.26;53.12
42177;BME280;28126;51.060;19.460;2022-08-03T14:52:26;100309.84;;;27.27;53.18
42177;BME280;28126;51.060;19.460;2022-08-03T14:55:28;100308.75;;;27.26;53.32
42177;BME280;28126;51.060;19.460;2022-08-03T14:58:29;100310.13;;;27.26;53.57
42177;BME280;28126;51.060;19.460;2022-08-03T15:01:31;100303.48;;;27.27;54.18
42177;BME280;28126;51.060;19.460;2022-08-03T15:04:32;100303.48;;;27.29;54.01
42177;BME280;28126;51.060;19.460;2022-08-03T15:07:33;100300.71;;;27.29;53.97
42177;BME280;28126;51.060;19.460;2022-08-03T15:10:36;100301.26;;;27.29;54.09
42177;BME280;28126;51.060;19.460;2022-08-03T15:13:37;100299.04;;;27.31;54.07
42177;BME280;28126;51.060;19.460;2022-08-03T15:16:39;100299.62;;;27.30;54.13
42177;BME280;28126;51.060;19.460;2022-08-03T15:19:40;100297.66;;;27.31;54.21
42177;BME280;28126;51.060;19.460;2022-08-03T15:22:42;100293.25;;;27.30;54.21
42177;BME280;28126;51.060;19.460;2022-08-03T15:25:44;100288.27;;;27.29;54.31
42177;BME280;28126;51.060;19.460;2022-08-03T15:28:46;100291.90;;;27.32;54.36
42177;BME280;28126;51.060;19.460;2022-08-03T15:31:47;100288.27;;;27.32;54.40
42177;BME280;28126;51.060;19.460;2022-08-03T15:34:49;100283.28;;;27.31;54.46
42177;BME280;28126;51.060;19.460;2022-08-03T15:37:52;100288.27;;;27.32;54.57
42177;BME280;28126;51.060;19.460;2022-08-03T15:40:54;100284.13;;;27.32;54.64
42177;BME280;28126;51.060;19.460;2022-08-03T15:43:55;100281.36;;;27.32;54.74
42177;BME280;28126;51.060;19.460;2022-08-03T15:46:57;100284.41;;;27.33;54.84
42177;BME280;28126;51.060;19.460;2022-08-03T15:49:58;100286.08;;;27.34;54.83
42177;BME280;28126;51.060;19.460;2022-08-03T15:53:00;100280.84;;;27.32;54.84
42177;BME280;28126;51.060;19.460;2022-08-03T15:56:02;100272.26;;;27.34;54.88
42177;BME280;28126;51.060;19.460;2022-08-03T15:59:03;100278.63;;;27.34;54.92
42177;BME280;28126;51.060;19.460;2022-08-03T16:02:05;100276.41;;;27.34;55.06
42177;BME280;28126;51.060;19.460;2022-08-03T16:05:08;100273.89;;;27.35;55.12
42177;BME280;28126;51.060;19.460;2022-08-03T16:08:10;100265.60;;;27.35;55.18
42177;BME280;28126;51.060;19.460;2022-08-03T16:11:11;100268.37;;;27.35;55.22
42177;BME280;28126;51.060;19.460;2022-08-03T16:14:12;100266.44;;;27.35;55.37
42177;BME280;28126;51.060;19.460;2022-08-03T16:17:14;100264.51;;;27.36;55.60
42177;BME280;28126;51.060;19.460;2022-08-03T16:20:15;100265.34;;;27.36;55.65
42177;BME280;28126;51.060;19.460;2022-08-03T16:23:17;100258.98;;;27.36;55.64